NKS24 KMSP-KRIC
Flight info
| Callsign | NKS24 |
|---|---|
| Flight time | 1h 59m |
| Altitude | 37000 |
| Route | COULT7 DLL J34 BAE FWA J149 GEFFS MOL SPIDR5 |
| Aircraft | A321/M-SDE3FGHIRWY/LB1 |
Departure
| Time | 2026-04-26 19:13 |
|---|---|
| Airport | Minneapolis–Saint Paul International Airport / Wold–Chamberlain Field (KMSP) |
Arrival
| Time | 2026-04-26 21:12 |
|---|---|
| Airport | Richmond International Airport (KRIC) |
| Time | Latitude | Longitude | Altitude | Speed | Heading |
|---|---|---|---|---|---|
| 2026-04-26 18:33 | 44.87727 | -93.24446 | 822 ft | 0 kts | 183° |
| 2026-04-26 19:04 | 44.87738 | -93.24446 | 822 ft | 2 kts | 180° |
| 2026-04-26 19:04 | 44.87754 | -93.24446 | 822 ft | 2 kts | 175° |
| 2026-04-26 19:05 | 44.87778 | -93.24467 | 823 ft | 2 kts | 81° |
| 2026-04-26 19:05 | 44.87778 | -93.24474 | 821 ft | 0 kts | 79° |
| 2026-04-26 19:07 | 44.87778 | -93.24473 | 825 ft | 1 kts | 79° |
| 2026-04-26 19:08 | 44.87788 | -93.24399 | 825 ft | 16 kts | 78° |
| 2026-04-26 19:08 | 44.87825 | -93.24234 | 825 ft | 18 kts | 71° |
| 2026-04-26 19:08 | 44.87760 | -93.24127 | 825 ft | 17 kts | 168° |
| 2026-04-26 19:08 | 44.87641 | -93.24096 | 825 ft | 18 kts | 169° |
| 2026-04-26 19:09 | 44.87513 | -93.24062 | 825 ft | 19 kts | 169° |
| 2026-04-26 19:09 | 44.87377 | -93.24025 | 825 ft | 21 kts | 168° |
| 2026-04-26 19:09 | 44.87233 | -93.23987 | 824 ft | 22 kts | 171° |
| 2026-04-26 19:09 | 44.87178 | -93.23950 | 825 ft | 0 kts | 113° |
| 2026-04-26 19:11 | 44.87178 | -93.23947 | 825 ft | 1 kts | 113° |
| 2026-04-26 19:11 | 44.87176 | -93.23936 | 825 ft | 2 kts | 101° |
| 2026-04-26 19:11 | 44.87178 | -93.23915 | 825 ft | 2 kts | 71° |
| 2026-04-26 19:12 | 44.87188 | -93.23893 | 822 ft | 3 kts | 51° |
| 2026-04-26 19:12 | 44.87208 | -93.23862 | 826 ft | 11 kts | 46° |
| 2026-04-26 19:12 | 44.87447 | -93.23521 | 822 ft | 85 kts | 45° |
| 2026-04-26 19:12 | 44.88018 | -93.22720 | 829 ft | 144 kts | 45° |
| 2026-04-26 19:13 | 44.88779 | -93.21624 | 1313 ft | 152 kts | 49° |
| 2026-04-26 19:13 | 44.89499 | -93.20569 | 2148 ft | 149 kts | 51° |
| 2026-04-26 19:13 | 44.90205 | -93.19445 | 2750 ft | 158 kts | 54° |
| 2026-04-26 19:13 | 44.90624 | -93.17964 | 2955 ft | 174 kts | 92° |
| 2026-04-26 19:14 | 44.90282 | -93.16245 | 3130 ft | 194 kts | 113° |
| 2026-04-26 19:14 | 44.89740 | -93.14423 | 3269 ft | 215 kts | 114° |
| 2026-04-26 19:14 | 44.89125 | -93.12387 | 3482 ft | 235 kts | 114° |
| 2026-04-26 19:14 | 44.88681 | -93.10914 | 3717 ft | 246 kts | 115° |
| 2026-04-26 19:15 | 44.87787 | -93.07918 | 4528 ft | 254 kts | 115° |
| 2026-04-26 19:15 | 44.87097 | -93.05589 | 5201 ft | 258 kts | 116° |
| 2026-04-26 19:15 | 44.86401 | -93.03235 | 5852 ft | 262 kts | 116° |
| 2026-04-26 19:15 | 44.85696 | -93.00847 | 6543 ft | 265 kts | 116° |
| 2026-04-26 19:16 | 44.84992 | -92.98471 | 7208 ft | 268 kts | 116° |
| 2026-04-26 19:16 | 44.84268 | -92.96031 | 7871 ft | 271 kts | 117° |
| 2026-04-26 19:16 | 44.83533 | -92.93557 | 8516 ft | 275 kts | 117° |
| 2026-04-26 19:16 | 44.82787 | -92.91051 | 9161 ft | 279 kts | 117° |
| 2026-04-26 19:17 | 44.82030 | -92.88512 | 9812 ft | 283 kts | 118° |
| 2026-04-26 19:17 | 44.81256 | -92.85927 | 10302 ft | 293 kts | 118° |
| 2026-04-26 19:17 | 44.80430 | -92.83183 | 10435 ft | 315 kts | 117° |
| 2026-04-26 19:17 | 44.79549 | -92.80254 | 10571 ft | 335 kts | 117° |
| 2026-04-26 19:18 | 44.78629 | -92.77174 | 10958 ft | 345 kts | 117° |
| 2026-04-26 19:18 | 44.77694 | -92.74036 | 11489 ft | 350 kts | 117° |
| 2026-04-26 19:18 | 44.76747 | -92.70854 | 12044 ft | 354 kts | 117° |
| 2026-04-26 19:18 | 44.75788 | -92.67644 | 12610 ft | 358 kts | 117° |
| 2026-04-26 19:19 | 44.74826 | -92.64430 | 13141 ft | 363 kts | 117° |
| 2026-04-26 19:19 | 44.73837 | -92.61141 | 13714 ft | 367 kts | 117° |
| 2026-04-26 19:19 | 44.72837 | -92.57815 | 14228 ft | 371 kts | 117° |
| 2026-04-26 19:19 | 44.71828 | -92.54460 | 14747 ft | 375 kts | 117° |
| 2026-04-26 19:20 | 44.70799 | -92.51074 | 15271 ft | 378 kts | 118° |
| 2026-04-26 19:20 | 44.70006 | -92.48906 | 15616 ft | 377 kts | 125° |
| 2026-04-26 19:20 | 44.68001 | -92.44856 | 16311 ft | 379 kts | 130° |
| 2026-04-26 19:20 | 44.66451 | -92.41839 | 16848 ft | 382 kts | 129° |
| 2026-04-26 19:21 | 44.64889 | -92.38796 | 17378 ft | 386 kts | 129° |
| 2026-04-26 19:21 | 44.63313 | -92.35727 | 17904 ft | 389 kts | 129° |
| 2026-04-26 19:21 | 44.61721 | -92.32632 | 18412 ft | 392 kts | 130° |
| 2026-04-26 19:21 | 44.60118 | -92.29512 | 18842 ft | 396 kts | 129° |
| 2026-04-26 19:22 | 44.58496 | -92.26364 | 19219 ft | 400 kts | 129° |
| 2026-04-26 19:22 | 44.56879 | -92.23229 | 19633 ft | 404 kts | 129° |
| 2026-04-26 19:22 | 44.55222 | -92.20019 | 20070 ft | 408 kts | 129° |
| 2026-04-26 19:22 | 44.53547 | -92.16779 | 20495 ft | 412 kts | 129° |
| 2026-04-26 19:23 | 44.51855 | -92.13506 | 20918 ft | 416 kts | 129° |
| 2026-04-26 19:23 | 44.50149 | -92.10207 | 21339 ft | 420 kts | 129° |
| 2026-04-26 19:23 | 44.48430 | -92.06879 | 21759 ft | 423 kts | 129° |
| 2026-04-26 19:23 | 44.46693 | -92.03525 | 22156 ft | 427 kts | 129° |
| 2026-04-26 19:24 | 44.44939 | -92.00149 | 22555 ft | 431 kts | 129° |
| 2026-04-26 19:24 | 44.43166 | -91.96748 | 22926 ft | 434 kts | 129° |
| 2026-04-26 19:24 | 44.39573 | -91.89867 | 23642 ft | 441 kts | 129° |
| 2026-04-26 19:25 | 44.37761 | -91.86386 | 23968 ft | 445 kts | 128° |
| 2026-04-26 19:25 | 44.36656 | -91.83960 | 24173 ft | 449 kts | 122° |
| 2026-04-26 19:25 | 44.34716 | -91.78823 | 24592 ft | 453 kts | 121° |
| 2026-04-26 19:25 | 44.33239 | -91.74914 | 24902 ft | 456 kts | 121° |
| 2026-04-26 19:26 | 44.31747 | -91.70993 | 25212 ft | 459 kts | 121° |
| 2026-04-26 19:26 | 44.30239 | -91.67047 | 25510 ft | 461 kts | 121° |
| 2026-04-26 19:26 | 44.28719 | -91.63078 | 25800 ft | 464 kts | 121° |
| 2026-04-26 19:26 | 44.27191 | -91.59090 | 26099 ft | 467 kts | 121° |
| 2026-04-26 19:27 | 44.25662 | -91.55092 | 26404 ft | 469 kts | 121° |
| 2026-04-26 19:27 | 44.24119 | -91.51060 | 26688 ft | 472 kts | 121° |
| 2026-04-26 19:27 | 44.22572 | -91.47016 | 26997 ft | 474 kts | 121° |
| 2026-04-26 19:27 | 44.21019 | -91.42951 | 27273 ft | 476 kts | 121° |
| 2026-04-26 19:28 | 44.19452 | -91.38861 | 27561 ft | 479 kts | 121° |
| 2026-04-26 19:28 | 44.17876 | -91.34765 | 27838 ft | 481 kts | 122° |
| 2026-04-26 19:28 | 44.16287 | -91.30651 | 28101 ft | 484 kts | 122° |
| 2026-04-26 19:28 | 44.14689 | -91.26513 | 28367 ft | 486 kts | 122° |
| 2026-04-26 19:29 | 44.13081 | -91.22352 | 28623 ft | 489 kts | 122° |
| 2026-04-26 19:29 | 44.11467 | -91.18180 | 28879 ft | 491 kts | 122° |
| 2026-04-26 19:29 | 44.09841 | -91.13993 | 29121 ft | 493 kts | 122° |
| 2026-04-26 19:29 | 44.08204 | -91.09786 | 29397 ft | 495 kts | 122° |
| 2026-04-26 19:30 | 44.06559 | -91.05557 | 29672 ft | 498 kts | 122° |
| 2026-04-26 19:30 | 44.04906 | -91.01315 | 29930 ft | 500 kts | 122° |
| 2026-04-26 19:30 | 44.03247 | -90.97065 | 30200 ft | 501 kts | 122° |
| 2026-04-26 19:30 | 44.02143 | -90.94239 | 30400 ft | 501 kts | 122° |
| 2026-04-26 19:31 | 43.99919 | -90.88565 | 30836 ft | 500 kts | 122° |
| 2026-04-26 19:31 | 43.98255 | -90.84322 | 31180 ft | 499 kts | 122° |
| 2026-04-26 19:31 | 43.96597 | -90.80094 | 31513 ft | 498 kts | 122° |
| 2026-04-26 19:31 | 43.94964 | -90.75934 | 31839 ft | 497 kts | 122° |
| 2026-04-26 19:32 | 43.93314 | -90.71738 | 32198 ft | 495 kts | 122° |
| 2026-04-26 19:32 | 43.91664 | -90.67549 | 32545 ft | 493 kts | 122° |
| 2026-04-26 19:32 | 43.90016 | -90.63374 | 32882 ft | 492 kts | 122° |
| 2026-04-26 19:32 | 43.88374 | -90.59223 | 33222 ft | 491 kts | 122° |
| 2026-04-26 19:33 | 43.86729 | -90.55075 | 33539 ft | 490 kts | 122° |
| 2026-04-26 19:33 | 43.85085 | -90.50937 | 33857 ft | 489 kts | 122° |
| 2026-04-26 19:33 | 43.83444 | -90.46807 | 34160 ft | 488 kts | 122° |
| 2026-04-26 19:33 | 43.81807 | -90.42689 | 34404 ft | 488 kts | 122° |
| 2026-04-26 19:34 | 43.80192 | -90.38635 | 34637 ft | 487 kts | 122° |
| 2026-04-26 19:34 | 43.78531 | -90.34474 | 34871 ft | 487 kts | 122° |
| 2026-04-26 19:34 | 43.76891 | -90.30370 | 35097 ft | 487 kts | 122° |
| 2026-04-26 19:34 | 43.75271 | -90.26326 | 35333 ft | 487 kts | 123° |
| 2026-04-26 19:35 | 43.73626 | -90.22226 | 35549 ft | 487 kts | 123° |
| 2026-04-26 19:35 | 43.71977 | -90.18124 | 35772 ft | 487 kts | 123° |
| 2026-04-26 19:35 | 43.70328 | -90.14030 | 36003 ft | 487 kts | 123° |
| 2026-04-26 19:35 | 43.68682 | -90.09941 | 36221 ft | 487 kts | 123° |
| 2026-04-26 19:36 | 43.67033 | -90.05849 | 36434 ft | 487 kts | 123° |
| 2026-04-26 19:36 | 43.65942 | -90.03143 | 36569 ft | 487 kts | 123° |
| 2026-04-26 19:36 | 43.63733 | -89.97675 | 36840 ft | 487 kts | 123° |
| 2026-04-26 19:36 | 43.62083 | -89.93593 | 37002 ft | 487 kts | 123° |
| 2026-04-26 19:37 | 43.58770 | -89.85421 | 37100 ft | 488 kts | 123° |
| 2026-04-26 19:37 | 43.55481 | -89.77292 | 37099 ft | 489 kts | 120° |
| 2026-04-26 19:38 | 43.52862 | -89.68596 | 37099 ft | 492 kts | 114° |
| 2026-04-26 19:38 | 43.50363 | -89.59824 | 37101 ft | 492 kts | 114° |
| 2026-04-26 19:39 | 43.47850 | -89.51063 | 37104 ft | 492 kts | 115° |
| 2026-04-26 19:39 | 43.45322 | -89.42307 | 37113 ft | 492 kts | 115° |
| 2026-04-26 19:40 | 43.43774 | -89.38139 | 37118 ft | 485 kts | 130° |
| 2026-04-26 19:40 | 43.41788 | -89.34420 | 37109 ft | 483 kts | 131° |
| 2026-04-26 19:40 | 43.37752 | -89.27032 | 37115 ft | 483 kts | 131° |
| 2026-04-26 19:41 | 43.33700 | -89.19665 | 37110 ft | 483 kts | 131° |
| 2026-04-26 19:41 | 43.31015 | -89.14787 | 37113 ft | 483 kts | 131° |
| 2026-04-26 19:42 | 43.25589 | -89.04937 | 37131 ft | 484 kts | 131° |
| 2026-04-26 19:42 | 43.21547 | -88.97625 | 37123 ft | 484 kts | 131° |
| 2026-04-26 19:43 | 43.17478 | -88.90284 | 37134 ft | 484 kts | 131° |
| 2026-04-26 19:43 | 43.13397 | -88.82939 | 37129 ft | 484 kts | 131° |
| 2026-04-26 19:44 | 43.09313 | -88.75600 | 37139 ft | 485 kts | 131° |
| 2026-04-26 19:44 | 43.05218 | -88.68268 | 37148 ft | 485 kts | 131° |
| 2026-04-26 19:45 | 43.01114 | -88.60947 | 37157 ft | 485 kts | 131° |
| 2026-04-26 19:45 | 42.96993 | -88.53612 | 37153 ft | 489 kts | 131° |
| 2026-04-26 19:46 | 42.92809 | -88.46189 | 37156 ft | 497 kts | 131° |
| 2026-04-26 19:46 | 42.88569 | -88.38662 | 37144 ft | 503 kts | 131° |
| 2026-04-26 19:47 | 42.85730 | -88.33637 | 37142 ft | 506 kts | 131° |
| 2026-04-26 19:47 | 42.79990 | -88.23504 | 37140 ft | 507 kts | 131° |
| 2026-04-26 19:48 | 42.75674 | -88.15902 | 37145 ft | 508 kts | 131° |
| 2026-04-26 19:48 | 42.71348 | -88.08311 | 37175 ft | 508 kts | 131° |
| 2026-04-26 19:49 | 42.67000 | -88.00704 | 37177 ft | 509 kts | 131° |
| 2026-04-26 19:49 | 42.62641 | -87.93101 | 37182 ft | 510 kts | 131° |
| 2026-04-26 19:50 | 42.58275 | -87.85506 | 37171 ft | 511 kts | 131° |
| 2026-04-26 19:50 | 42.53903 | -87.77893 | 37184 ft | 511 kts | 131° |
| 2026-04-26 19:51 | 42.49528 | -87.70316 | 37203 ft | 511 kts | 131° |
| 2026-04-26 19:51 | 42.45133 | -87.62737 | 37177 ft | 511 kts | 131° |
| 2026-04-26 19:52 | 42.40773 | -87.55215 | 37164 ft | 510 kts | 131° |
| 2026-04-26 19:52 | 42.36389 | -87.47664 | 37159 ft | 510 kts | 131° |
| 2026-04-26 19:53 | 42.31995 | -87.40130 | 37152 ft | 510 kts | 131° |
| 2026-04-26 19:53 | 42.28309 | -87.33828 | 37154 ft | 510 kts | 131° |
| 2026-04-26 19:54 | 42.23184 | -87.25084 | 37147 ft | 512 kts | 131° |
| 2026-04-26 19:54 | 42.19471 | -87.18775 | 37152 ft | 513 kts | 131° |
| 2026-04-26 19:55 | 42.15032 | -87.11239 | 37149 ft | 514 kts | 131° |
| 2026-04-26 19:55 | 42.10588 | -87.03700 | 37153 ft | 514 kts | 131° |
| 2026-04-26 19:56 | 42.06135 | -86.96172 | 37155 ft | 514 kts | 131° |
| 2026-04-26 19:56 | 42.01670 | -86.88647 | 37160 ft | 515 kts | 131° |
| 2026-04-26 19:57 | 41.97233 | -86.81183 | 37163 ft | 515 kts | 131° |
| 2026-04-26 19:57 | 41.92749 | -86.73670 | 37154 ft | 515 kts | 131° |
| 2026-04-26 19:58 | 41.88261 | -86.66163 | 37161 ft | 516 kts | 131° |
| 2026-04-26 19:58 | 41.83764 | -86.58663 | 37172 ft | 516 kts | 131° |
| 2026-04-26 19:59 | 41.79270 | -86.51166 | 37183 ft | 516 kts | 131° |
| 2026-04-26 19:59 | 41.74773 | -86.43675 | 37184 ft | 516 kts | 131° |
| 2026-04-26 20:00 | 41.70263 | -86.36207 | 37166 ft | 516 kts | 131° |
| 2026-04-26 20:00 | 41.65745 | -86.28746 | 37178 ft | 516 kts | 131° |
| 2026-04-26 20:01 | 41.61229 | -86.21297 | 37184 ft | 516 kts | 131° |
| 2026-04-26 20:01 | 41.56707 | -86.13864 | 37182 ft | 516 kts | 131° |
| 2026-04-26 20:02 | 41.52175 | -86.06444 | 37179 ft | 515 kts | 131° |
| 2026-04-26 20:02 | 41.48415 | -86.00289 | 37158 ft | 515 kts | 130° |
| 2026-04-26 20:03 | 41.43120 | -85.91636 | 37177 ft | 515 kts | 131° |
| 2026-04-26 20:03 | 41.38608 | -85.84293 | 37146 ft | 514 kts | 131° |
| 2026-04-26 20:04 | 41.34076 | -85.76936 | 37154 ft | 513 kts | 131° |
| 2026-04-26 20:04 | 41.29546 | -85.69602 | 37155 ft | 513 kts | 131° |
| 2026-04-26 20:05 | 41.25017 | -85.62278 | 37154 ft | 513 kts | 131° |
| 2026-04-26 20:05 | 41.20472 | -85.54936 | 37158 ft | 513 kts | 131° |
| 2026-04-26 20:06 | 41.15930 | -85.47623 | 37159 ft | 513 kts | 131° |
| 2026-04-26 20:06 | 41.11378 | -85.40316 | 37157 ft | 513 kts | 130° |
| 2026-04-26 20:07 | 41.06824 | -85.33036 | 37154 ft | 513 kts | 131° |
| 2026-04-26 20:07 | 41.02256 | -85.25749 | 37158 ft | 513 kts | 131° |
| 2026-04-26 20:08 | 40.97722 | -85.18513 | 37171 ft | 514 kts | 130° |
| 2026-04-26 20:08 | 40.93236 | -85.11131 | 37174 ft | 515 kts | 129° |
| 2026-04-26 20:09 | 40.88842 | -85.03622 | 37197 ft | 516 kts | 128° |
| 2026-04-26 20:09 | 40.84440 | -84.96124 | 37201 ft | 516 kts | 129° |
| 2026-04-26 20:10 | 40.79996 | -84.88678 | 37197 ft | 516 kts | 129° |
| 2026-04-26 20:10 | 40.75526 | -84.81261 | 37175 ft | 516 kts | 129° |
| 2026-04-26 20:11 | 40.71055 | -84.73855 | 37183 ft | 516 kts | 129° |
| 2026-04-26 20:12 | 40.64367 | -84.62730 | 37195 ft | 516 kts | 128° |
| 2026-04-26 20:12 | 40.59901 | -84.55324 | 37192 ft | 516 kts | 129° |
| 2026-04-26 20:13 | 40.55426 | -84.47939 | 37182 ft | 516 kts | 129° |
| 2026-04-26 20:13 | 40.50945 | -84.40565 | 37182 ft | 516 kts | 129° |
| 2026-04-26 20:14 | 40.46466 | -84.33205 | 37189 ft | 516 kts | 129° |
| 2026-04-26 20:14 | 40.41979 | -84.25847 | 37158 ft | 514 kts | 128° |
| 2026-04-26 20:15 | 40.37509 | -84.18518 | 37160 ft | 513 kts | 129° |
| 2026-04-26 20:15 | 40.33037 | -84.11230 | 37159 ft | 513 kts | 129° |
| 2026-04-26 20:16 | 40.28711 | -84.03797 | 37151 ft | 513 kts | 120° |
| 2026-04-26 20:16 | 40.25502 | -83.95542 | 37154 ft | 512 kts | 114° |
| 2026-04-26 20:17 | 40.22363 | -83.87158 | 37181 ft | 513 kts | 114° |
| 2026-04-26 20:17 | 40.19205 | -83.78780 | 37181 ft | 513 kts | 114° |
| 2026-04-26 20:18 | 40.16048 | -83.70412 | 37191 ft | 513 kts | 114° |
| 2026-04-26 20:18 | 40.12878 | -83.62048 | 37189 ft | 513 kts | 115° |
| 2026-04-26 20:19 | 40.09703 | -83.53694 | 37184 ft | 513 kts | 115° |
| 2026-04-26 20:19 | 40.06529 | -83.45337 | 37173 ft | 513 kts | 114° |
| 2026-04-26 20:20 | 40.03354 | -83.37016 | 37188 ft | 512 kts | 115° |
| 2026-04-26 20:20 | 40.00168 | -83.28697 | 37185 ft | 512 kts | 115° |
| 2026-04-26 20:21 | 39.96984 | -83.20403 | 37183 ft | 511 kts | 115° |
| 2026-04-26 20:21 | 39.93799 | -83.12108 | 37196 ft | 511 kts | 115° |
| 2026-04-26 20:22 | 39.90603 | -83.03834 | 37188 ft | 510 kts | 115° |
| 2026-04-26 20:22 | 39.87404 | -82.95589 | 37204 ft | 509 kts | 115° |
| 2026-04-26 20:23 | 39.84211 | -82.87356 | 37200 ft | 509 kts | 115° |
| 2026-04-26 20:23 | 39.81023 | -82.79132 | 37200 ft | 509 kts | 115° |
| 2026-04-26 20:24 | 39.77825 | -82.70933 | 37188 ft | 508 kts | 115° |
| 2026-04-26 20:24 | 39.74645 | -82.62826 | 37139 ft | 504 kts | 115° |
| 2026-04-26 20:25 | 39.71462 | -82.54711 | 37155 ft | 503 kts | 115° |
| 2026-04-26 20:25 | 39.68278 | -82.46618 | 37158 ft | 503 kts | 115° |
| 2026-04-26 20:26 | 39.65089 | -82.38528 | 37167 ft | 503 kts | 115° |
| 2026-04-26 20:26 | 39.61904 | -82.30480 | 37147 ft | 501 kts | 115° |
| 2026-04-26 20:27 | 39.58720 | -82.22449 | 37158 ft | 500 kts | 115° |
| 2026-04-26 20:27 | 39.55530 | -82.14419 | 37145 ft | 501 kts | 115° |
| 2026-04-26 20:28 | 39.52361 | -82.06455 | 37158 ft | 500 kts | 116° |
| 2026-04-26 20:28 | 39.49156 | -81.98452 | 37155 ft | 500 kts | 116° |
| 2026-04-26 20:29 | 39.45950 | -81.90457 | 37138 ft | 500 kts | 116° |
| 2026-04-26 20:29 | 39.42747 | -81.82469 | 37140 ft | 500 kts | 116° |
| 2026-04-26 20:30 | 39.39532 | -81.74487 | 37142 ft | 500 kts | 116° |
| 2026-04-26 20:30 | 39.36306 | -81.66513 | 37148 ft | 501 kts | 116° |
| 2026-04-26 20:31 | 39.33071 | -81.58530 | 37162 ft | 502 kts | 116° |
| 2026-04-26 20:31 | 39.29832 | -81.50567 | 37119 ft | 499 kts | 116° |
| 2026-04-26 20:32 | 39.26599 | -81.42632 | 37136 ft | 499 kts | 116° |
| 2026-04-26 20:32 | 39.23371 | -81.34701 | 37125 ft | 499 kts | 116° |
| 2026-04-26 20:33 | 39.20149 | -81.26816 | 37131 ft | 499 kts | 116° |
| 2026-04-26 20:33 | 39.16926 | -81.18983 | 37120 ft | 498 kts | 116° |
| 2026-04-26 20:34 | 39.13673 | -81.11093 | 37105 ft | 499 kts | 116° |
| 2026-04-26 20:34 | 39.10422 | -81.03205 | 37115 ft | 498 kts | 116° |
| 2026-04-26 20:35 | 39.07164 | -80.95324 | 37103 ft | 499 kts | 116° |
| 2026-04-26 20:35 | 39.03900 | -80.87449 | 37089 ft | 498 kts | 117° |
| 2026-04-26 20:36 | 39.00366 | -80.79795 | 37094 ft | 498 kts | 127° |
| 2026-04-26 20:36 | 38.95975 | -80.72876 | 37107 ft | 499 kts | 129° |
| 2026-04-26 20:37 | 38.91563 | -80.65973 | 37103 ft | 500 kts | 129° |
| 2026-04-26 20:37 | 38.87144 | -80.59062 | 37108 ft | 501 kts | 129° |
| 2026-04-26 20:38 | 38.82758 | -80.52196 | 37117 ft | 501 kts | 129° |
| 2026-04-26 20:38 | 38.78335 | -80.45291 | 37115 ft | 500 kts | 129° |
| 2026-04-26 20:39 | 38.73910 | -80.38402 | 37105 ft | 500 kts | 129° |
| 2026-04-26 20:39 | 38.69478 | -80.31532 | 37095 ft | 500 kts | 129° |
| 2026-04-26 20:40 | 38.65795 | -80.25829 | 37105 ft | 500 kts | 129° |
| 2026-04-26 20:40 | 38.61360 | -80.18976 | 37106 ft | 500 kts | 129° |
| 2026-04-26 20:41 | 38.56928 | -80.12137 | 37116 ft | 499 kts | 129° |
| 2026-04-26 20:41 | 38.52501 | -80.05311 | 37111 ft | 498 kts | 129° |
| 2026-04-26 20:42 | 38.48079 | -79.98528 | 37096 ft | 496 kts | 130° |
| 2026-04-26 20:42 | 38.43672 | -79.91778 | 37073 ft | 493 kts | 130° |
| 2026-04-26 20:42 | 38.41491 | -79.88435 | 36662 ft | 488 kts | 129° |
| 2026-04-26 20:43 | 38.39329 | -79.85120 | 36146 ft | 484 kts | 129° |
| 2026-04-26 20:43 | 38.37182 | -79.81832 | 35612 ft | 482 kts | 129° |
| 2026-04-26 20:43 | 38.35038 | -79.78560 | 35058 ft | 480 kts | 130° |
| 2026-04-26 20:43 | 38.32927 | -79.75347 | 34474 ft | 479 kts | 130° |
| 2026-04-26 20:44 | 38.30782 | -79.72091 | 33834 ft | 479 kts | 129° |
| 2026-04-26 20:44 | 38.28639 | -79.68838 | 33157 ft | 479 kts | 129° |
| 2026-04-26 20:44 | 38.26503 | -79.65594 | 32557 ft | 476 kts | 129° |
| 2026-04-26 20:44 | 38.24383 | -79.62372 | 32043 ft | 473 kts | 129° |
| 2026-04-26 20:45 | 38.22280 | -79.59178 | 31535 ft | 469 kts | 129° |
| 2026-04-26 20:45 | 38.20190 | -79.56011 | 31040 ft | 466 kts | 129° |
| 2026-04-26 20:45 | 38.18108 | -79.52861 | 30538 ft | 463 kts | 129° |
| 2026-04-26 20:45 | 38.16045 | -79.49744 | 29988 ft | 460 kts | 129° |
| 2026-04-26 20:46 | 38.13992 | -79.46644 | 29414 ft | 456 kts | 129° |
| 2026-04-26 20:46 | 38.11963 | -79.43580 | 28885 ft | 451 kts | 129° |
| 2026-04-26 20:46 | 38.09956 | -79.40547 | 28380 ft | 447 kts | 129° |
| 2026-04-26 20:46 | 38.07962 | -79.37539 | 27859 ft | 443 kts | 129° |
| 2026-04-26 20:47 | 38.06009 | -79.34601 | 27357 ft | 439 kts | 129° |
| 2026-04-26 20:47 | 38.04684 | -79.32611 | 27025 ft | 436 kts | 129° |
| 2026-04-26 20:47 | 38.02101 | -79.28737 | 26351 ft | 431 kts | 129° |
| 2026-04-26 20:47 | 38.00170 | -79.25841 | 25861 ft | 428 kts | 128° |
| 2026-04-26 20:48 | 37.98261 | -79.22973 | 25390 ft | 424 kts | 128° |
| 2026-04-26 20:48 | 37.96363 | -79.20128 | 24817 ft | 420 kts | 128° |
| 2026-04-26 20:48 | 37.94482 | -79.17312 | 24403 ft | 416 kts | 128° |
| 2026-04-26 20:48 | 37.92619 | -79.14525 | 23989 ft | 413 kts | 128° |
| 2026-04-26 20:49 | 37.90888 | -79.11659 | 23594 ft | 407 kts | 119° |
| 2026-04-26 20:49 | 37.89638 | -79.08485 | 23150 ft | 400 kts | 108° |
| 2026-04-26 20:49 | 37.88848 | -79.05142 | 22693 ft | 395 kts | 103° |
| 2026-04-26 20:49 | 37.88130 | -79.01793 | 22223 ft | 393 kts | 103° |
| 2026-04-26 20:50 | 37.87412 | -78.98461 | 21755 ft | 391 kts | 103° |
| 2026-04-26 20:50 | 37.86708 | -78.95195 | 21300 ft | 388 kts | 103° |
| 2026-04-26 20:50 | 37.86000 | -78.91903 | 20841 ft | 386 kts | 102° |
| 2026-04-26 20:50 | 37.85296 | -78.88641 | 20377 ft | 383 kts | 102° |
| 2026-04-26 20:51 | 37.84591 | -78.85389 | 19915 ft | 381 kts | 103° |
| 2026-04-26 20:51 | 37.83889 | -78.82162 | 19443 ft | 379 kts | 102° |
| 2026-04-26 20:51 | 37.83186 | -78.78955 | 18978 ft | 377 kts | 102° |
| 2026-04-26 20:51 | 37.82488 | -78.75767 | 18521 ft | 375 kts | 102° |
| 2026-04-26 20:52 | 37.81807 | -78.72595 | 18009 ft | 372 kts | 102° |
| 2026-04-26 20:52 | 37.81144 | -78.69444 | 17522 ft | 369 kts | 102° |
| 2026-04-26 20:52 | 37.80501 | -78.66356 | 17061 ft | 366 kts | 101° |
| 2026-04-26 20:52 | 37.79856 | -78.63265 | 16683 ft | 360 kts | 101° |
| 2026-04-26 20:53 | 37.79223 | -78.60240 | 16410 ft | 352 kts | 101° |
| 2026-04-26 20:53 | 37.78598 | -78.57290 | 16140 ft | 343 kts | 101° |
| 2026-04-26 20:53 | 37.77983 | -78.54403 | 15878 ft | 337 kts | 101° |
| 2026-04-26 20:53 | 37.77374 | -78.51548 | 15617 ft | 335 kts | 101° |
| 2026-04-26 20:54 | 37.76774 | -78.48715 | 15354 ft | 333 kts | 101° |
| 2026-04-26 20:54 | 37.76176 | -78.45899 | 15098 ft | 331 kts | 101° |
| 2026-04-26 20:54 | 37.75577 | -78.43087 | 14844 ft | 330 kts | 101° |
| 2026-04-26 20:54 | 37.74981 | -78.40295 | 14593 ft | 329 kts | 101° |
| 2026-04-26 20:55 | 37.74298 | -78.37543 | 14303 ft | 329 kts | 112° |
| 2026-04-26 20:55 | 37.73137 | -78.35046 | 13917 ft | 330 kts | 120° |
| 2026-04-26 20:55 | 37.71880 | -78.32628 | 13479 ft | 328 kts | 120° |
| 2026-04-26 20:55 | 37.70624 | -78.30230 | 13053 ft | 327 kts | 120° |
| 2026-04-26 20:56 | 37.69371 | -78.27837 | 12631 ft | 325 kts | 120° |
| 2026-04-26 20:56 | 37.68128 | -78.25456 | 12226 ft | 324 kts | 120° |
| 2026-04-26 20:56 | 37.66911 | -78.23120 | 11825 ft | 322 kts | 120° |
| 2026-04-26 20:56 | 37.65684 | -78.20759 | 11423 ft | 321 kts | 120° |
| 2026-04-26 20:57 | 37.64462 | -78.18404 | 11028 ft | 320 kts | 120° |
| 2026-04-26 20:57 | 37.63249 | -78.16061 | 10631 ft | 318 kts | 120° |
| 2026-04-26 20:57 | 37.62043 | -78.13725 | 10366 ft | 313 kts | 120° |
| 2026-04-26 20:57 | 37.60873 | -78.11462 | 10203 ft | 304 kts | 120° |
| 2026-04-26 20:58 | 37.59724 | -78.09243 | 9894 ft | 301 kts | 120° |
| 2026-04-26 20:58 | 37.58584 | -78.07040 | 9534 ft | 299 kts | 120° |
| 2026-04-26 20:58 | 37.57448 | -78.04856 | 9204 ft | 296 kts | 120° |
| 2026-04-26 20:58 | 37.56320 | -78.02696 | 8869 ft | 294 kts | 120° |
| 2026-04-26 20:59 | 37.55194 | -78.00552 | 8528 ft | 292 kts | 120° |
| 2026-04-26 20:59 | 37.54073 | -77.98432 | 8195 ft | 290 kts | 120° |
| 2026-04-26 20:59 | 37.52955 | -77.96330 | 7859 ft | 288 kts | 120° |
| 2026-04-26 20:59 | 37.51855 | -77.94272 | 7546 ft | 286 kts | 120° |
| 2026-04-26 21:00 | 37.50747 | -77.92197 | 7228 ft | 284 kts | 118° |
| 2026-04-26 21:00 | 37.49822 | -77.89994 | 6908 ft | 279 kts | 110° |
| 2026-04-26 21:00 | 37.49013 | -77.87787 | 6592 ft | 277 kts | 110° |
| 2026-04-26 21:00 | 37.48215 | -77.85592 | 6254 ft | 275 kts | 110° |
| 2026-04-26 21:01 | 37.47433 | -77.83436 | 5924 ft | 273 kts | 110° |
| 2026-04-26 21:01 | 37.46656 | -77.81264 | 5587 ft | 271 kts | 110° |
| 2026-04-26 21:01 | 37.45894 | -77.79104 | 5277 ft | 269 kts | 110° |
| 2026-04-26 21:01 | 37.45141 | -77.76959 | 4942 ft | 265 kts | 110° |
| 2026-04-26 21:02 | 37.44410 | -77.74849 | 4269 ft | 262 kts | 110° |
| 2026-04-26 21:02 | 37.43692 | -77.72749 | 3580 ft | 260 kts | 110° |
| 2026-04-26 21:02 | 37.42998 | -77.70682 | 3117 ft | 250 kts | 110° |
| 2026-04-26 21:02 | 37.42351 | -77.68754 | 3024 ft | 231 kts | 110° |
| 2026-04-26 21:03 | 37.41727 | -77.66895 | 3029 ft | 230 kts | 110° |
| 2026-04-26 21:03 | 37.41105 | -77.65038 | 3031 ft | 229 kts | 110° |
| 2026-04-26 21:03 | 37.40405 | -77.63225 | 2817 ft | 229 kts | 114° |
| 2026-04-26 21:03 | 37.39686 | -77.61506 | 2777 ft | 213 kts | 115° |
| 2026-04-26 21:04 | 37.39022 | -77.59955 | 2728 ft | 191 kts | 115° |
| 2026-04-26 21:04 | 37.38405 | -77.58513 | 2686 ft | 190 kts | 114° |
| 2026-04-26 21:04 | 37.37782 | -77.57041 | 2651 ft | 194 kts | 114° |
| 2026-04-26 21:04 | 37.37145 | -77.55539 | 2601 ft | 195 kts | 114° |
| 2026-04-26 21:05 | 37.36501 | -77.54013 | 2560 ft | 195 kts | 114° |
| 2026-04-26 21:05 | 37.35867 | -77.52511 | 2513 ft | 195 kts | 114° |
| 2026-04-26 21:05 | 37.35231 | -77.51008 | 2471 ft | 195 kts | 114° |
| 2026-04-26 21:05 | 37.34588 | -77.49487 | 2431 ft | 202 kts | 114° |
| 2026-04-26 21:06 | 37.33924 | -77.47916 | 2391 ft | 204 kts | 114° |
| 2026-04-26 21:06 | 37.33257 | -77.46339 | 2338 ft | 204 kts | 115° |
| 2026-04-26 21:06 | 37.32584 | -77.44741 | 2294 ft | 211 kts | 112° |
| 2026-04-26 21:06 | 37.32180 | -77.42983 | 2246 ft | 209 kts | 92° |
| 2026-04-26 21:07 | 37.32272 | -77.41187 | 2182 ft | 206 kts | 74° |
| 2026-04-26 21:07 | 37.32829 | -77.39557 | 2087 ft | 202 kts | 55° |
| 2026-04-26 21:07 | 37.33769 | -77.38273 | 2024 ft | 200 kts | 37° |
| 2026-04-26 21:07 | 37.34995 | -77.37449 | 2033 ft | 200 kts | 20° |
| 2026-04-26 21:08 | 37.36295 | -77.37039 | 2016 ft | 181 kts | 14° |
| 2026-04-26 21:08 | 37.37435 | -77.36700 | 2038 ft | 154 kts | 14° |
| 2026-04-26 21:08 | 37.38427 | -77.36404 | 2025 ft | 142 kts | 15° |
| 2026-04-26 21:08 | 37.39372 | -77.36121 | 2020 ft | 137 kts | 14° |
| 2026-04-26 21:09 | 37.40300 | -77.35843 | 2007 ft | 137 kts | 15° |
| 2026-04-26 21:09 | 37.41222 | -77.35566 | 1911 ft | 135 kts | 15° |
| 2026-04-26 21:09 | 37.42145 | -77.35290 | 1764 ft | 136 kts | 14° |
| 2026-04-26 21:09 | 37.43066 | -77.35013 | 1581 ft | 135 kts | 15° |
| 2026-04-26 21:10 | 37.43984 | -77.34738 | 1409 ft | 136 kts | 13° |
| 2026-04-26 21:10 | 37.44908 | -77.34461 | 1227 ft | 137 kts | 15° |
| 2026-04-26 21:10 | 37.45827 | -77.34185 | 1031 ft | 135 kts | 15° |
| 2026-04-26 21:10 | 37.46739 | -77.33912 | 839 ft | 134 kts | 13° |
| 2026-04-26 21:11 | 37.47660 | -77.33635 | 657 ft | 137 kts | 15° |
| 2026-04-26 21:11 | 37.48591 | -77.33356 | 474 ft | 135 kts | 15° |
| 2026-04-26 21:11 | 37.49515 | -77.33077 | 282 ft | 135 kts | 15° |
| 2026-04-26 21:11 | 37.50408 | -77.32811 | 179 ft | 120 kts | 14° |
| 2026-04-26 21:12 | 37.51091 | -77.32606 | 173 ft | 77 kts | 13° |
| 2026-04-26 21:12 | 37.51444 | -77.32498 | 175 ft | 29 kts | 13° |
| 2026-04-26 21:12 | 37.51539 | -77.32470 | 175 ft | 15 kts | 13° |
| 2026-04-26 21:12 | 37.51637 | -77.32542 | 173 ft | 18 kts | 283° |
| 2026-04-26 21:13 | 37.51637 | -77.32559 | 173 ft | 2 kts | 269° |
| 2026-04-26 21:13 | 37.51636 | -77.32581 | 173 ft | 3 kts | 269° |
| 2026-04-26 21:13 | 37.51636 | -77.32584 | 173 ft | 0 kts | 268° |
| 2026-04-26 21:15 | 37.51634 | -77.32636 | 173 ft | 14 kts | 260° |
| 2026-04-26 21:15 | 37.51555 | -77.32697 | 173 ft | 15 kts | 194° |
| 2026-04-26 21:16 | 37.51452 | -77.32729 | 173 ft | 16 kts | 194° |
| 2026-04-26 21:16 | 37.51341 | -77.32762 | 173 ft | 17 kts | 193° |
| 2026-04-26 21:16 | 37.51222 | -77.32797 | 173 ft | 18 kts | 193° |
| 2026-04-26 21:16 | 37.51096 | -77.32833 | 173 ft | 19 kts | 193° |
| 2026-04-26 21:17 | 37.50977 | -77.32890 | 173 ft | 17 kts | 243° |
| 2026-04-26 21:17 | 37.50973 | -77.32958 | 173 ft | 0 kts | 281° |